Glendive, MT

11:49 AM MDT on July 29, 2014 (GMT -0600)
Dawson Community (KGDV) Elev 2457 ft | 47.14 °N, 104.81 °W | Change Station

Current weather conditions updated 14 minutes ago

Clear
Clear
81 °F
Feels Like 80 °F
N
5
Wind Variable Wind from NNW

Today is forecast to be Warmer than yesterday.

Today
High -- | Low -- °F
--% Chance of Precip.
Yesterday
High -- | Low -- °F
Precip. -- in
5:34 AM 8:35 PM
Waxing Crescent, 7% visible
Pressure 30.22 in
Visibility 10.0 miles
Clouds Clear
Heat Index 80 °F
Dew Point 54 °F
Humidity 39%
Rainfall 0.00 in
Snow Depth Not available.
UV 9 out of 12
Pollen 7.00 out of 12
Air Quality Not available.
Flu Activity Not available.
METAR KGDV 291735Z AUTO 34004KT 10SM CLR 27/12 A3022 RMK AO1

More Conditions Fewer Conditions

Pressure 30.22 in
Visibility 10.0 miles
Clouds Clear
Heat Index 80 °F
Dew Point 54 °F
Humidity 39%
Rainfall 0.00 in
Snow Depth Not available.
UV 9 out of 12
Pollen 7.00 out of 12
Air Quality Not available.
Flu Activity Not available.
METAR KGDV 291735Z AUTO 34004KT 10SM CLR 27/12 A3022 RMK AO1

More Conditions Fewer Conditions

10-Day Weather Forecast

Almanac

Astronomy

Jul. 29, 2014 Rise Set
Actual Time 5:34 AM MDT 8:35 PM MDT
Civil Twilight 4:58 AM MDT 9:11 PM MDT
Nautical Twilight 4:11 AM MDT 9:57 PM MDT
Astronomical Twilight 3:15 AM MDT 10:53 PM MDT
Moon 8:27 AM MDT 9:33 PM MDT
Length of Visible Light 16h 13m
Length of Day
15h 01m
Tomorrow will be 2m 32s shorter.
Waxing Crescent, 7% of the Moon is Illuminated
Today
Waxing Crescent
Aug 3
First Quarter
Aug 10
Full
Aug 17
Last Quarter
Aug 25
New

Today's Extremes

State Highs State Lows

Community

WunderPhotos

Upload Photos

1,738,803 photos uploaded!

WunderBlogs® & News

Nearby

Snow Depth

Station Depth Elevation
Crystal Lake 0 in 6050 ft
Cole Creek 0 in 7850 ft
Spur Park 0 in 8100 ft
Porcupine 1 in 6500 ft
White Mill 1 in 8700 ft

Earthquake Activity

City Distance Mag. Time & Date
No recent earthquake activity has been reported nearby.
Minimum magnitude displayed is 2.5.

Coastal Water Temperatures

Place Temperature
No Stations Reporting

Nearby Weather Stations

Station Location Temp. Heat Index Dew Point Humidity Wind Precip. Elev Updated Type
SE Bloomfield, Bloomfield, MT 80.2 °F 80 °F 53 °F 39% NNW  at  6.0 mph 0.00 in / hr 2753 ft 11:41 AM MDT Rapid Fire
MesoWest LINDSAY 1 , Lindsay, MT 76 °F 78 °F 55 °F 48% North  at  1 mph 0.00 in / hr 2680 ft 10:00 AM MDT MADIS
RAWS PINE HILL MT, Mildred, MT 78 °F 79 °F 53 °F 42% WNW  at  3 mph 0.00 in / hr 2648 ft 10:24 AM MDT MADIS

Show More Stations Show Fewer Stations